Strona główna
METAR-TAF:

METAR-TAF

Lotnisko :

Port lotniczy Berno

Berno, Szwajcaria

Szerokość geograficzna: 46-55N, Długość geograficzna: 007-30E, wysokość: 505 m

Aktualna obserwacja pogody

Raport powstał 49 minut temu, godzina 05:20 UTC
Wiatr 3 kt od południowy wschód
Temperatura -3°C
Wilgotność 100%
Ciśnienie 1030 hPa
Widzialność 10 km lub więcej
Brak chmur poniżej 1500 m i brak chmur cumulonimbus

METAR: LSZB 220520Z 14003KT CAVOK M03/M03 Q1030 NOSIG

czas: 07:09 (06:09 UTC)

Prognoza

Raport powstał 44 minut temu, godzina 05:25 UTC
Prognoza ważna od 22 godzina 06 UTC do 22 godzina 15 UTC
Wiatr 3 kt z kierunków zmiennych
Widzialność 10 km lub więcej
Brak chmur poniżej 1500 m i brak chmur cumulonimbus

TAF: LSZB 220525Z 2206/2215 VRB03KT CAVOK

Obserwacja i prognoza pogody dla ponad 4000 lotnisk (raport METAR i TAF).

Dostępne stacje oznaczono żółtymi i czerwonymi punktami na mapie.

Najedź kursorem aby zobaczyć nazwę stacji.

Kliknij aby zobaczyć obserwacje i prognozy pogody.

Aby zmienić mapę: kliknij na zielony przycisk z czarnym krzyżykiem, aby powiększyć; na zielony przycisk z myślnikiem, aby pomniejszyć; na zielone strzałki, aby przejść do map sąsiednich.


METAR-TAF: